Time,TemperatureF,DewpointF,PressureIn,WindDirection,WindDirectionDegrees,WindSpeedMPH,WindSpeedGustMPH,Humidity,HourlyPrecipIn,Conditions,Clouds,dailyrainin,SoftwareType,DateUTC
2016-07-29 00:11:00,54.0,52.0,-100.00,North,-9999,-999.9,-999.0,94,-99.99,,,-99.99,,2016-07-29 04:11:00,
2016-07-29 00:13:00,51.0,50.0,-100.00,North,-9999,-999.9,-999.0,97,-99.99,,,-99.99,,2016-07-29 04:13:00,
2016-07-29 00:41:00,51.0,50.0,-100.00,North,-9999,-999.9,-999.0,97,-99.99,,,-99.99,,2016-07-29 04:41:00,
2016-07-29 00:56:00,51.0,50.0,-100.00,North,-9999,-999.9,-999.0,97,-99.99,,,-99.99,,2016-07-29 04:56:00,
2016-07-29 01:13:00,50.0,49.0,-100.00,North,-9999,0.0,2.0,98,-99.99,,,-99.99,,2016-07-29 05:13:00,
2016-07-29 01:43:00,50.0,49.0,-100.00,North,-9999,0.0,-999.0,98,-99.99,,,-99.99,,2016-07-29 05:43:00,
2016-07-29 01:53:00,50.0,49.0,-100.00,North,-9999,0.0,-999.0,98,-99.99,,,-99.99,,2016-07-29 05:53:00,
2016-07-29 02:05:00,50.0,49.0,-100.00,North,-9999,-999.9,-999.0,98,-99.99,,,-99.99,,2016-07-29 06:05:00,
2016-07-29 02:13:00,48.0,47.0,-100.00,SSW,196,1.0,3.0,98,-99.99,,,-99.99,,2016-07-29 06:13:00,
2016-07-29 02:39:00,48.0,47.0,-100.00,SSW,196,1.0,-999.0,98,-99.99,,,-99.99,,2016-07-29 06:39:00,
2016-07-29 02:46:00,48.0,47.0,-100.00,SSW,196,1.0,3.0,98,-99.99,,,-99.99,,2016-07-29 06:46:00,
2016-07-29 02:58:00,48.0,47.0,-100.00,SSW,196,1.0,3.0,98,-99.99,,,-99.99,,2016-07-29 06:58:00,
2016-07-29 03:06:00,48.0,47.0,-100.00,SSW,196,1.0,3.0,98,-99.99,,,-99.99,,2016-07-29 07:06:00,
2016-07-29 03:13:00,47.0,46.0,-100.00,South,175,1.0,2.0,98,-99.99,,,-99.99,,2016-07-29 07:13:00,
2016-07-29 03:50:00,47.0,46.0,-100.00,South,175,1.0,2.0,98,-99.99,,,-99.99,,2016-07-29 07:50:00,
2016-07-29 03:57:00,47.0,46.0,-100.00,South,175,1.0,2.0,98,-99.99,,,-99.99,,2016-07-29 07:57:00,
2016-07-29 04:03:00,47.0,46.0,-100.00,South,175,1.0,2.0,98,-99.99,,,-99.99,,2016-07-29 08:03:00,
2016-07-29 04:13:00,46.0,45.0,-100.00,SSE,159,1.0,3.0,98,-99.99,,,-99.99,,2016-07-29 08:13:00,
2016-07-29 04:34:00,46.0,45.0,-100.00,SSE,159,1.0,3.0,98,-99.99,,,-99.99,,2016-07-29 08:34:00,
2016-07-29 04:46:00,46.0,45.0,-100.00,SSE,159,1.0,3.0,98,-99.99,,,-99.99,,2016-07-29 08:46:00,
2016-07-29 04:54:00,46.0,45.0,-100.00,SSE,159,1.0,3.0,98,-99.99,,,-99.99,,2016-07-29 08:54:00,
2016-07-29 05:04:00,46.0,45.0,-100.00,SSE,159,1.0,3.0,98,-99.99,,,-99.99,,2016-07-29 09:04:00,
2016-07-29 05:13:00,45.0,44.0,-100.00,North,-9999,0.0,-999.0,98,-99.99,,,-99.99,,2016-07-29 09:13:00,
2016-07-29 05:41:00,45.0,44.0,-100.00,North,-9999,0.0,-999.0,98,-99.99,,,-99.99,,2016-07-29 09:41:00,
2016-07-29 06:11:00,45.0,44.0,-100.00,North,-9999,-999.9,-999.0,98,-99.99,,,-99.99,,2016-07-29 10:11:00,
2016-07-29 06:13:00,44.0,43.0,-100.00,North,-9999,0.0,-999.0,98,-99.99,,,-99.99,,2016-07-29 10:13:00,
2016-07-29 06:41:00,44.0,43.0,-100.00,North,-9999,-999.9,-999.0,98,-99.99,,,-99.99,,2016-07-29 10:41:00,
2016-07-29 07:13:00,45.0,44.0,-100.00,SSE,156,2.0,-999.0,98,-99.99,,,-99.99,,2016-07-29 11:13:00,
2016-07-29 07:50:00,45.0,44.0,-100.00,SSE,156,2.0,2.0,98,-99.99,,,-99.99,,2016-07-29 11:50:00,
2016-07-29 07:56:00,45.0,44.0,-100.00,SSE,156,2.0,2.0,98,-99.99,,,-99.99,,2016-07-29 11:56:00,
2016-07-29 08:13:00,52.0,51.0,-100.00,North,-9999,0.0,-999.0,97,-99.99,,,-99.99,,2016-07-29 12:13:00,
2016-07-29 08:40:00,52.0,51.0,-100.00,North,-9999,0.0,-999.0,97,-99.99,,,-99.99,,2016-07-29 12:40:00,
2016-07-29 08:47:00,52.0,51.0,-100.00,North,-9999,0.0,2.0,97,-99.99,,,-99.99,,2016-07-29 12:47:00,
2016-07-29 08:58:00,52.0,51.0,-100.00,North,-9999,0.0,2.0,97,-99.99,,,-99.99,,2016-07-29 12:58:00,
2016-07-29 09:08:00,52.0,51.0,-100.00,North,-9999,0.0,2.0,97,-99.99,,,-99.99,,2016-07-29 13:08:00,
2016-07-29 09:41:00,61.0,56.0,-100.00,South,169,1.0,-999.0,83,-99.99,,,-99.99,,2016-07-29 13:41:00,